Time;durP1;ratioP1;P1;durP2;ratioP2;P2;SDS_P1;SDS_P2;PMS_P1;PMS_P2;Temp;Humidity;BMP_temperature;BMP_pressure;BME280_temperature;BME280_humidity;BME280_pressure;Samples;Min_cycle;Max_cycle;Signal;HPM_P1;HPM_P2
2024/03/04 00:01:37;;;;;;;0.40;0.40;;;9.10;58.30;;;;;;6323034;28;20048;-76
2024/03/04 00:04:38;;;;;;;0.10;0.10;;;9.10;58.30;;;;;;6294501;28;20032;-75
2024/03/04 00:07:39;;;;;;;0.75;0.30;;;9.10;58.20;;;;;;6329697;28;20016;-75
2024/03/04 00:10:44;;;;;;;0.20;0.20;;;9.10;58.20;;;;;;6331666;28;20028;-76
2024/03/04 00:13:45;;;;;;;0.20;0.20;;;9.10;58.20;;;;;;6293520;28;20036;-74
2024/03/04 00:16:48;;;;;;;0.30;0.30;;;9.10;58.10;;;;;;6309395;28;20032;-77
2024/03/04 00:19:49;;;;;;;0.17;0.10;;;9.10;58.00;;;;;;6303645;28;20017;-77
2024/03/04 00:22:50;;;;;;;0.10;0.10;;;9.10;58.00;;;;;;6332315;28;20088;-76
2024/03/04 00:25:52;;;;;;;0.30;0.30;;;9.10;58.00;;;;;;6306401;28;20089;-77
2024/03/04 00:28:55;;;;;;;0.25;0.20;;;9.10;58.10;;;;;;6283049;28;20020;-73
2024/03/04 00:31:56;;;;;;;0.20;0.20;;;9.10;58.20;;;;;;6300294;28;20035;-76
2024/03/04 00:34:59;;;;;;;0.38;0.10;;;9.00;58.20;;;;;;6305326;28;20021;-76
2024/03/04 00:38:00;;;;;;;0.25;0.20;;;9.00;58.30;;;;;;6288024;28;20024;-77
2024/03/04 00:41:00;;;;;;;0.20;0.17;;;9.00;58.40;;;;;;6325047;28;20093;-76
2024/03/04 00:44:01;;;;;;;0.40;0.40;;;9.00;58.50;;;;;;6331886;28;20039;-75
2024/03/04 00:47:06;;;;;;;0.28;0.28;;;9.00;58.60;;;;;;6327292;28;20080;-75
2024/03/04 00:50:11;;;;;;;0.15;0.15;;;9.00;58.60;;;;;;6321600;28;20164;-76
2024/03/04 00:53:13;;;;;;;0.57;0.50;;;9.00;58.60;;;;;;6329709;28;20112;-76
2024/03/04 00:56:17;;;;;;;0.20;0.20;;;9.00;58.70;;;;;;6314889;28;20028;-76
2024/03/04 00:59:18;;;;;;;0.45;0.28;;;9.00;58.70;;;;;;6331997;28;20020;-74
2024/03/04 01:02:20;;;;;;;0.90;0.60;;;9.00;58.70;;;;;;6315738;28;20039;-76
2024/03/04 01:05:21;;;;;;;0.20;0.20;;;9.00;58.60;;;;;;6286138;28;20025;-73
2024/03/04 01:08:24;;;;;;;0.13;0.13;;;9.20;58.70;;;;;;6290601;28;20512;-76
2024/03/04 01:11:26;;;;;;;0.17;0.17;;;9.10;58.60;;;;;;6306680;28;20016;-76
2024/03/04 01:14:27;;;;;;;0.22;0.22;;;9.10;58.60;;;;;;6319091;28;20031;-77
2024/03/04 01:17:30;;;;;;;0.40;0.40;;;9.10;58.70;;;;;;6302286;28;20032;-78
2024/03/04 01:20:38;;;;;;;0.20;0.20;;;9.00;58.80;;;;;;6308603;28;20090;-76
2024/03/04 01:23:40;;;;;;;0.25;0.25;;;9.00;58.90;;;;;;6316300;28;20173;-76
2024/03/04 01:26:41;;;;;;;0.10;0.10;;;9.00;59.10;;;;;;6303303;28;20042;-73
2024/03/04 01:29:42;;;;;;;0.15;0.15;;;9.10;59.20;;;;;;6311572;28;20036;-75
2024/03/04 01:32:44;;;;;;;3.67;0.30;;;9.00;59.20;;;;;;6290701;28;20054;-75
2024/03/04 01:35:46;;;;;;;0.17;0.17;;;9.00;59.30;;;;;;6302361;28;20032;-76
2024/03/04 01:38:47;;;;;;;0.17;0.17;;;9.00;59.50;;;;;;6320136;28;20115;-76
2024/03/04 01:41:49;;;;;;;0.47;0.20;;;8.90;59.60;;;;;;6324101;28;20107;-77
2024/03/04 01:44:50;;;;;;;0.47;0.30;;;8.90;59.80;;;;;;6327933;28;20031;-75
2024/03/04 01:47:57;;;;;;;0.10;0.10;;;8.80;59.80;;;;;;6310222;28;20028;-76
2024/03/04 01:50:58;;;;;;;0.20;0.20;;;8.80;59.90;;;;;;6301976;28;20075;-76
2024/03/04 01:54:06;;;;;;;0.32;0.32;;;8.80;60.00;;;;;;6329484;28;20133;-77
2024/03/04 01:57:16;;;;;;;0.10;0.10;;;8.80;60.30;;;;;;6335016;28;20024;-76
2024/03/04 02:00:20;;;;;;;0.28;0.28;;;8.90;60.40;;;;;;6332945;28;20028;-77
2024/03/04 02:03:23;;;;;;;0.60;0.28;;;8.80;60.40;;;;;;6326763;28;20028;-76
2024/03/04 02:06:24;;;;;;;0.50;0.25;;;8.80;60.40;;;;;;6319043;28;20036;-75
2024/03/04 02:09:27;;;;;;;0.32;0.20;;;8.90;60.40;;;;;;6333540;28;20470;-76
2024/03/04 02:12:30;;;;;;;1.23;0.30;;;8.90;60.20;;;;;;6334701;28;20039;-75
2024/03/04 02:15:37;;;;;;;0.10;0.10;;;9.00;59.90;;;;;;6325094;28;20130;-76
2024/03/04 02:18:38;;;;;;;0.30;0.25;;;9.00;59.90;;;;;;6321274;28;20123;-76
2024/03/04 02:21:47;;;;;;;0.47;0.30;;;9.10;59.80;;;;;;6329514;28;20089;-76
2024/03/04 02:24:48;;;;;;;0.38;0.20;;;9.10;59.80;;;;;;6330916;28;20034;-77
2024/03/04 02:27:49;;;;;;;0.43;0.30;;;9.30;59.80;;;;;;6332186;28;20016;-77
2024/03/04 02:30:50;;;;;;;0.25;0.25;;;9.20;59.80;;;;;;6334286;28;20008;-77
2024/03/04 02:33:52;;;;;;;1.08;0.20;;;9.20;60.00;;;;;;6335439;28;20028;-75
2024/03/04 02:36:53;;;;;;;0.10;0.10;;;9.20;60.90;;;;;;6318002;28;20035;-75
2024/03/04 02:39:55;;;;;;;0.10;0.10;;;9.10;60.30;;;;;;6307473;28;20020;-77
2024/03/04 02:42:57;;;;;;;0.10;0.10;;;9.10;60.50;;;;;;6329040;28;20111;-77
2024/03/04 02:46:00;;;;;;;0.10;0.10;;;9.10;60.60;;;;;;6336066;28;20024;-75
2024/03/04 02:49:02;;;;;;;0.28;0.20;;;9.10;60.70;;;;;;6317853;28;20023;-77
2024/03/04 02:52:05;;;;;;;0.20;0.20;;;9.10;60.60;;;;;;6333467;28;20012;-75
2024/03/04 02:55:06;;;;;;;0.28;0.20;;;9.10;60.60;;;;;;6318601;28;20032;-76
2024/03/04 02:58:10;;;;;;;2.20;0.20;;;9.10;60.60;;;;;;6332359;28;20708;-77
2024/03/04 03:01:11;;;;;;;0.10;0.10;;;9.10;60.70;;;;;;6327843;28;20155;-75
2024/03/04 03:04:14;;;;;;;0.20;0.20;;;9.20;60.80;;;;;;6290521;28;20025;-76
2024/03/04 03:07:19;;;;;;;0.15;0.15;;;9.20;60.80;;;;;;6326237;28;20084;-77
2024/03/04 03:10:21;;;;;;;1.25;0.20;;;9.20;60.60;;;;;;6300883;28;20036;-76
2024/03/04 03:13:22;;;;;;;0.32;0.32;;;9.30;60.60;;;;;;6283822;28;20032;-76
2024/03/04 03:16:25;;;;;;;0.10;0.10;;;9.30;60.40;;;;;;6322624;28;20024;-76
2024/03/04 03:19:27;;;;;;;0.10;0.10;;;9.40;60.50;;;;;;6325439;28;20063;-77
2024/03/04 03:22:30;;;;;;;0.65;0.30;;;9.30;60.40;;;;;;6296699;28;20480;-77
2024/03/04 03:25:31;;;;;;;0.30;0.30;;;9.30;60.50;;;;;;6309535;28;20048;-75
2024/03/04 03:28:32;;;;;;;4.80;0.43;;;9.30;60.60;;;;;;6313950;28;20043;-76
2024/03/04 03:31:34;;;;;;;0.00;0.00;;;9.30;60.80;;;;;;6313195;28;20080;-74
2024/03/04 03:34:36;;;;;;;0.32;0.10;;;9.30;61.00;;;;;;6314836;28;20054;-77
2024/03/04 03:37:37;;;;;;;1.95;0.30;;;9.30;61.90;;;;;;6313151;28;20043;-75
2024/03/04 03:40:38;;;;;;;0.10;0.10;;;9.30;61.20;;;;;;6327416;28;20040;-76
2024/03/04 03:43:48;;;;;;;0.43;0.43;;;9.30;61.30;;;;;;6313112;28;20112;-74
2024/03/04 03:46:49;;;;;;;0.57;0.30;;;9.30;61.50;;;;;;6330324;28;20020;-76
2024/03/04 03:50:01;;;;;;;0.10;0.10;;;9.30;61.70;;;;;;6331559;28;20113;-76
2024/03/04 03:53:03;;;;;;;0.40;0.20;;;9.20;61.90;;;;;;6325271;28;20024;-76
2024/03/04 03:56:04;;;;;;;0.10;0.10;;;9.20;62.10;;;;;;6332411;28;20032;-75
2024/03/04 03:59:06;;;;;;;0.15;0.15;;;9.20;62.30;;;;;;6331654;28;20043;-78
2024/03/04 04:02:07;;;;;;;0.32;0.20;;;9.20;62.40;;;;;;6318501;28;20099;-75
2024/03/04 04:05:09;;;;;;;0.28;0.28;;;9.20;62.60;;;;;;6311012;28;20100;-75
2024/03/04 04:08:14;;;;;;;2.20;0.32;;;9.20;62.70;;;;;;6323623;28;20028;-76
2024/03/04 04:11:18;;;;;;;0.30;0.30;;;9.20;62.70;;;;;;6325664;28;20036;-76
2024/03/04 04:14:19;;;;;;;0.40;0.40;;;9.20;62.80;;;;;;6303741;28;20036;-76
2024/03/04 04:17:22;;;;;;;0.77;0.52;;;9.20;62.90;;;;;;6324285;28;20035;-75
2024/03/04 04:20:25;;;;;;;0.82;0.70;;;9.20;62.80;;;;;;6308694;28;20028;-75
2024/03/04 04:23:51;;;;;;;1.30;0.45;;;9.20;62.70;;;;;;6315313;28;20119;-77
2024/03/04 04:26:52;;;;;;;0.93;0.70;;;9.30;62.60;;;;;;6308733;28;20013;-75
2024/03/04 04:29:53;;;;;;;0.43;0.40;;;9.30;62.60;;;;;;6314750;28;20043;-74
2024/03/04 04:32:55;;;;;;;1.50;0.50;;;9.30;62.60;;;;;;6302055;28;20039;-76
2024/03/04 04:35:57;;;;;;;0.20;0.20;;;9.40;62.70;;;;;;6324309;28;20103;-76
2024/03/04 04:38:59;;;;;;;0.85;0.30;;;9.40;62.60;;;;;;6321161;28;20020;-74
2024/03/04 04:42:00;;;;;;;0.43;0.43;;;9.40;62.40;;;;;;6307898;28;20028;-75
2024/03/04 04:45:01;;;;;;;0.47;0.47;;;9.50;62.30;;;;;;6331235;28;20028;-76
2024/03/04 04:48:04;;;;;;;1.40;0.93;;;9.50;62.20;;;;;;6331127;28;20074;-76
2024/03/04 04:51:07;;;;;;;0.30;0.30;;;9.50;62.00;;;;;;6318327;28;20102;-75
2024/03/04 04:54:08;;;;;;;0.57;0.40;;;9.50;62.00;;;;;;6333740;28;20070;-77
2024/03/04 04:57:10;;;;;;;1.05;0.50;;;9.50;61.90;;;;;;6297874;28;20028;-74
2024/03/04 05:00:12;;;;;;;0.75;0.63;;;9.60;61.90;;;;;;6331000;28;20032;-77
2024/03/04 05:03:13;;;;;;;0.47;0.40;;;9.60;61.60;;;;;;6326277;28;20034;-75
2024/03/04 05:06:14;;;;;;;1.00;0.90;;;9.70;61.50;;;;;;6322934;28;20024;-76
2024/03/04 05:09:15;;;;;;;0.60;0.50;;;9.70;61.30;;;;;;6324695;28;20040;-75
2024/03/04 05:12:16;;;;;;;0.52;0.30;;;9.80;61.10;;;;;;6320124;28;20107;-75
2024/03/04 05:15:17;;;;;;;0.20;0.20;;;9.80;61.00;;;;;;6318428;28;20027;-76
2024/03/04 05:18:18;;;;;;;0.20;0.20;;;9.80;60.70;;;;;;6298342;28;20038;-78
2024/03/04 05:21:20;;;;;;;0.20;0.20;;;9.80;60.40;;;;;;6311311;28;20035;-76
2024/03/04 05:24:21;;;;;;;0.20;0.20;;;9.80;60.50;;;;;;6327519;28;20028;-74
2024/03/04 05:27:22;;;;;;;0.30;0.30;;;9.70;60.50;;;;;;6317704;28;20071;-74
2024/03/04 05:30:23;;;;;;;0.17;0.17;;;9.80;60.20;;;;;;6302478;28;20508;-76
2024/03/04 05:33:24;;;;;;;0.20;0.20;;;9.80;60.20;;;;;;6315575;28;20084;-75
2024/03/04 05:36:25;;;;;;;0.30;0.30;;;9.80;60.10;;;;;;6310718;28;20039;-76
2024/03/04 05:39:31;;;;;;;0.20;0.20;;;9.80;60.10;;;;;;6292235;28;20035;-76
2024/03/04 05:42:37;;;;;;;0.30;0.25;;;9.80;60.30;;;;;;6292337;28;20032;-75
2024/03/04 05:45:40;;;;;;;0.32;0.30;;;9.80;60.50;;;;;;6310834;28;20032;-76
2024/03/04 05:48:41;;;;;;;0.98;0.63;;;9.80;60.60;;;;;;6301701;28;20079;-76
2024/03/04 05:51:42;;;;;;;0.10;0.10;;;10.00;60.80;;;;;;6301112;28;20084;-77
2024/03/04 05:54:43;;;;;;;0.20;0.20;;;9.80;60.70;;;;;;6313782;28;20028;-77
2024/03/04 05:57:45;;;;;;;0.20;0.20;;;9.80;60.60;;;;;;6329420;28;20108;-76
2024/03/04 06:00:46;;;;;;;0.20;0.20;;;9.80;61.50;;;;;;6329834;28;20062;-77
2024/03/04 06:03:49;;;;;;;0.30;0.30;;;9.80;60.70;;;;;;6335161;28;20043;-76
2024/03/04 06:06:50;;;;;;;1.35;0.90;;;9.80;60.70;;;;;;6328763;28;20031;-77
2024/03/04 06:09:51;;;;;;;0.20;0.20;;;9.80;60.80;;;;;;6309153;28;20055;-78
2024/03/04 06:12:53;;;;;;;0.17;0.17;;;9.90;61.00;;;;;;6320950;28;20025;-77
2024/03/04 06:15:55;;;;;;;0.20;0.20;;;9.90;61.00;;;;;;6311790;28;20086;-77
2024/03/04 06:18:58;;;;;;;0.20;0.20;;;9.90;61.00;;;;;;6330253;28;20670;-76
2024/03/04 06:21:59;;;;;;;0.40;0.40;;;9.90;61.00;;;;;;6333747;28;20138;-77
2024/03/04 06:25:01;;;;;;;0.43;0.35;;;10.00;60.90;;;;;;6318508;28;20040;-75
2024/03/04 06:28:02;;;;;;;0.30;0.30;;;10.00;60.80;;;;;;6336649;28;20036;-75
2024/03/04 06:31:04;;;;;;;0.17;0.17;;;10.10;60.80;;;;;;6335993;28;20031;-77
2024/03/04 06:34:05;;;;;;;0.30;0.30;;;10.10;61.50;;;;;;6329529;28;20031;-76
2024/03/04 06:37:07;;;;;;;0.15;0.15;;;10.10;60.70;;;;;;6331035;28;20032;-76
2024/03/04 06:40:09;;;;;;;0.40;0.40;;;10.10;60.90;;;;;;6313559;28;20027;-77
2024/03/04 06:43:11;;;;;;;0.45;0.38;;;10.00;61.10;;;;;;6314145;28;20104;-77
2024/03/04 06:46:11;;;;;;;0.30;0.30;;;10.20;61.20;;;;;;6334474;28;20092;-78
2024/03/04 06:49:12;;;;;;;0.30;0.30;;;10.10;61.00;;;;;;6337659;28;20004;-78
2024/03/04 06:52:15;;;;;;;0.10;0.10;;;10.10;60.80;;;;;;6320434;28;20099;-76
2024/03/04 06:55:16;;;;;;;12.75;0.60;;;10.20;60.70;;;;;;6337424;28;20024;-77
2024/03/04 06:58:17;;;;;;;0.52;0.30;;;10.20;60.60;;;;;;6318636;28;20452;-77
2024/03/04 07:01:18;;;;;;;0.73;0.40;;;10.20;60.60;;;;;;6337524;28;20016;-78
2024/03/04 07:04:18;;;;;;;0.35;0.35;;;10.30;60.60;;;;;;6299972;28;20108;-77
2024/03/04 07:07:19;;;;;;;0.20;0.20;;;10.30;60.50;;;;;;6312056;28;20189;-77
2024/03/04 07:10:20;;;;;;;1.52;0.47;;;10.30;60.50;;;;;;6305778;28;20064;-77
2024/03/04 07:13:52;;;;;;;0.88;0.50;;;10.30;60.50;;;;;;6316556;28;20031;-77
2024/03/04 07:17:20;;;;;;;0.17;0.17;;;10.30;60.50;;;;;;6325069;28;20423;-79
2024/03/04 07:20:22;;;;;;;0.40;0.30;;;10.30;61.20;;;;;;6324213;28;20395;-77
2024/03/04 07:23:25;;;;;;;0.43;0.30;;;10.30;60.20;;;;;;6316569;28;20040;-77
2024/03/04 07:26:28;;;;;;;0.30;0.30;;;10.30;60.00;;;;;;6310001;28;20021;-77
2024/03/04 07:29:28;;;;;;;0.38;0.35;;;10.40;59.90;;;;;;6301578;28;20024;-77
2024/03/04 07:32:30;;;;;;;0.10;0.10;;;10.40;59.70;;;;;;6304180;28;20137;-78
2024/03/04 07:35:31;;;;;;;1.02;0.22;;;10.40;59.60;;;;;;6283752;28;20033;-78
2024/03/04 07:38:32;;;;;;;2.83;0.43;;;10.50;59.60;;;;;;6310727;28;20031;-78
2024/03/04 07:41:34;;;;;;;0.52;0.52;;;10.60;59.50;;;;;;6288120;28;20025;-78
2024/03/04 07:44:40;;;;;;;0.43;0.43;;;10.60;59.40;;;;;;6307503;28;20142;-77
2024/03/04 07:47:41;;;;;;;1.35;0.57;;;10.60;59.40;;;;;;6324800;28;20476;-78
2024/03/04 07:50:44;;;;;;;0.50;0.50;;;10.60;59.30;;;;;;6316604;28;20055;-78
2024/03/04 07:53:45;;;;;;;1.00;0.60;;;10.60;59.30;;;;;;6302504;28;20028;-76
2024/03/04 07:56:46;;;;;;;0.30;0.30;;;10.70;59.20;;;;;;6309433;28;20052;-77
2024/03/04 07:59:48;;;;;;;1.05;0.45;;;10.60;59.00;;;;;;6299934;28;20107;-78
2024/03/04 08:02:49;;;;;;;0.82;0.50;;;10.60;58.80;;;;;;6305741;28;20038;-78
2024/03/04 08:05:51;;;;;;;0.50;0.50;;;10.60;58.80;;;;;;6325539;28;20017;-76
2024/03/04 08:08:55;;;;;;;0.60;0.50;;;10.60;58.90;;;;;;6310831;28;20033;-76
2024/03/04 08:11:56;;;;;;;0.40;0.40;;;10.60;58.90;;;;;;6299491;28;20043;-78
2024/03/04 08:14:56;;;;;;;1.10;0.85;;;10.60;59.00;;;;;;6281769;28;20021;-78
2024/03/04 08:18:00;;;;;;;0.50;0.50;;;10.70;59.10;;;;;;6313527;28;20028;-77
2024/03/04 08:21:02;;;;;;;0.77;0.68;;;10.60;59.20;;;;;;6283103;28;20085;-77
2024/03/04 08:24:03;;;;;;;0.50;0.50;;;10.60;59.40;;;;;;6300773;28;20181;-76
2024/03/04 08:27:04;;;;;;;0.40;0.40;;;10.60;59.60;;;;;;6285236;28;20077;-76
2024/03/04 08:30:06;;;;;;;0.73;0.60;;;10.60;59.70;;;;;;6298530;28;20740;-79
2024/03/04 08:33:08;;;;;;;0.47;0.47;;;10.70;59.60;;;;;;6318438;28;20028;-77
2024/03/04 08:36:09;;;;;;;0.70;0.60;;;10.80;59.30;;;;;;6322955;28;20054;-77
2024/03/04 08:39:11;;;;;;;1.15;1.02;;;10.80;59.20;;;;;;6331474;28;20044;-78
2024/03/04 08:42:14;;;;;;;1.58;1.00;;;10.80;59.30;;;;;;6304592;28;20089;-77
2024/03/04 08:45:18;;;;;;;1.42;1.13;;;10.80;59.40;;;;;;6290185;28;20032;-76
2024/03/04 08:48:20;;;;;;;3.10;1.35;;;10.90;59.60;;;;;;6321035;28;20400;-78
2024/03/04 08:51:22;;;;;;;1.85;0.98;;;10.90;59.50;;;;;;6306934;28;20015;-78
2024/03/04 08:54:26;;;;;;;2.58;0.80;;;10.90;59.60;;;;;;6316864;28;20051;-78
2024/03/04 08:57:27;;;;;;;2.47;1.15;;;10.90;59.70;;;;;;6318273;28;20024;-78
2024/03/04 09:00:28;;;;;;;1.67;1.35;;;10.90;59.60;;;;;;6321503;28;20008;-77
2024/03/04 09:03:30;;;;;;;1.67;1.10;;;11.00;59.70;;;;;;6304567;28;20027;-78
2024/03/04 09:06:31;;;;;;;1.20;1.10;;;11.00;59.50;;;;;;6320929;28;20027;-79
2024/03/04 09:09:34;;;;;;;1.40;1.20;;;11.10;59.30;;;;;;6283561;28;20043;-78
2024/03/04 09:12:35;;;;;;;1.85;1.35;;;11.10;59.30;;;;;;6300081;28;20594;-78
2024/03/04 09:15:38;;;;;;;4.45;2.28;;;11.10;59.10;;;;;;6308614;28;20017;-78
2024/03/04 09:18:39;;;;;;;2.92;1.77;;;11.20;59.10;;;;;;6296455;28;20487;-78
2024/03/04 09:21:41;;;;;;;2.40;1.60;;;11.40;58.90;;;;;;6303827;28;20113;-77
2024/03/04 09:24:43;;;;;;;1.75;1.30;;;11.50;58.60;;;;;;6302488;28;20066;-77
2024/03/04 09:27:45;;;;;;;3.15;1.77;;;11.60;58.30;;;;;;6280047;28;20030;-77
2024/03/04 09:30:46;;;;;;;2.90;1.90;;;11.60;58.20;;;;;;6320342;28;20028;-78
2024/03/04 09:34:10;;;;;;;2.65;1.55;;;11.70;58.00;;;;;;6309619;28;20036;-77
2024/03/04 09:37:11;;;;;;;2.60;2.15;;;11.60;57.70;;;;;;6300033;28;20028;-78
2024/03/04 09:40:13;;;;;;;3.88;2.05;;;11.60;57.70;;;;;;6320967;28;20062;-74
2024/03/04 09:43:19;;;;;;;3.95;2.20;;;11.60;57.70;;;;;;6325221;28;20066;-76
2024/03/04 09:46:20;;;;;;;3.42;2.22;;;11.50;57.70;;;;;;6309861;28;20032;-76
2024/03/04 09:49:28;;;;;;;4.55;2.15;;;11.50;58.00;;;;;;6307989;28;20032;-76
2024/03/04 09:52:31;;;;;;;1.88;1.63;;;11.40;58.00;;;;;;6305734;28;20024;-75
2024/03/04 09:55:31;;;;;;;3.22;2.05;;;11.40;57.90;;;;;;6324556;28;20024;-76
2024/03/04 09:58:33;;;;;;;13.30;2.50;;;11.40;57.90;;;;;;6308491;28;20098;-76
2024/03/04 10:01:35;;;;;;;3.58;1.77;;;11.40;57.90;;;;;;6325384;28;20023;-76
2024/03/04 10:04:39;;;;;;;3.45;1.88;;;11.40;57.90;;;;;;6323488;28;20040;-76
2024/03/04 10:07:40;;;;;;;2.83;2.20;;;11.50;57.80;;;;;;6322798;28;20028;-77
2024/03/04 10:10:50;;;;;;;2.55;1.77;;;11.60;57.70;;;;;;6297326;28;20058;-76
2024/03/04 10:13:52;;;;;;;4.25;2.13;;;11.60;57.60;;;;;;6304518;28;20036;-76
2024/03/04 10:16:55;;;;;;;3.25;2.03;;;11.70;57.50;;;;;;6315658;28;20035;-78
2024/03/04 10:20:06;;;;;;;3.90;2.10;;;11.70;57.40;;;;;;6320754;28;20031;-77
2024/03/04 10:23:07;;;;;;;3.40;2.40;;;11.80;57.50;;;;;;6304069;28;20029;-78
2024/03/04 10:26:10;;;;;;;10.35;2.72;;;11.90;57.20;;;;;;6311300;28;20043;-76
2024/03/04 10:29:12;;;;;;;3.50;2.17;;;11.90;57.20;;;;;;6316784;28;20013;-77
2024/03/04 10:32:17;;;;;;;2.85;2.22;;;12.00;57.10;;;;;;6306535;28;20024;-77
2024/03/04 10:35:18;;;;;;;3.17;2.20;;;12.00;56.90;;;;;;6304374;28;20444;-77
2024/03/04 10:38:20;;;;;;;3.33;2.40;;;12.10;56.90;;;;;;6286772;28;20542;-78
2024/03/04 10:41:26;;;;;;;5.60;2.95;;;12.30;56.70;;;;;;6314138;28;20020;-77
2024/03/04 10:44:29;;;;;;;3.75;2.47;;;12.40;56.50;;;;;;6293522;28;20104;-77
2024/03/04 10:47:39;;;;;;;7.88;2.47;;;12.50;56.20;;;;;;6301249;28;20452;-76
2024/03/04 10:50:40;;;;;;;4.38;2.70;;;12.50;55.90;;;;;;6286215;28;20161;-78
2024/03/04 10:53:40;;;;;;;4.57;2.60;;;12.60;55.70;;;;;;6321080;28;20714;-77
2024/03/04 10:56:50;;;;;;;3.70;2.53;;;12.60;55.60;;;;;;6318534;28;20016;-77
2024/03/04 11:03:29;;;;;;;6.95;2.70;;;12.60;55.40;;;;;;6322347;28;20113;-76
2024/03/04 11:06:33;;;;;;;2.63;2.03;;;12.70;55.30;;;;;;6299639;28;20025;-78
2024/03/04 11:09:36;;;;;;;5.50;2.42;;;12.70;55.20;;;;;;6302862;28;20043;-75
2024/03/04 11:12:41;;;;;;;5.50;2.80;;;12.80;55.20;;;;;;6307151;28;20029;-76
2024/03/04 11:15:49;;;;;;;5.50;2.53;;;12.80;55.00;;;;;;6302576;28;20052;-79
2024/03/04 11:19:09;;;;;;;7.50;3.55;;;12.80;55.00;;;;;;6309543;28;20021;-77
2024/03/04 11:22:12;;;;;;;9.02;2.30;;;12.80;55.00;;;;;;6298874;28;20115;-77
2024/03/04 11:25:17;;;;;;;4.55;2.05;;;12.80;54.80;;;;;;6310967;28;20046;-76
2024/03/04 11:28:19;;;;;;;3.03;1.80;;;12.90;54.70;;;;;;6299062;28;20124;-79
2024/03/04 11:31:26;;;;;;;4.93;2.08;;;13.00;54.40;;;;;;6276723;28;20028;-76
2024/03/04 11:34:27;;;;;;;4.50;2.20;;;13.10;54.40;;;;;;6292051;28;20077;-78
2024/03/04 11:37:29;;;;;;;3.03;2.03;;;13.10;54.30;;;;;;6309893;28;20452;-77
2024/03/04 11:40:30;;;;;;;2.95;1.92;;;13.30;54.10;;;;;;6317265;28;20060;-76
2024/03/04 11:43:48;;;;;;;3.38;2.00;;;13.60;53.80;;;;;;6316377;28;20101;-77
2024/03/04 11:46:50;;;;;;;3.42;2.88;;;13.80;53.00;;;;;;6298349;28;20430;-77
2024/03/04 11:49:54;;;;;;;5.30;2.28;;;13.90;52.50;;;;;;6285377;28;20017;-77
2024/03/04 11:52:56;;;;;;;2.15;1.80;;;13.90;52.20;;;;;;6299698;28;20035;-77
2024/03/04 11:55:57;;;;;;;5.40;2.50;;;14.10;52.10;;;;;;6309239;28;20021;-77
2024/03/04 11:58:58;;;;;;;2.78;1.98;;;14.10;51.70;;;;;;6310043;28;20024;-77
2024/03/04 12:02:05;;;;;;;6.65;2.78;;;14.30;51.70;;;;;;6303101;28;20447;-77
2024/03/04 12:05:09;;;;;;;3.22;2.28;;;14.30;51.50;;;;;;6301452;28;20067;-76
2024/03/04 12:08:11;;;;;;;6.40;2.47;;;14.40;51.60;;;;;;6305324;28;20065;-78
2024/03/04 12:11:15;;;;;;;4.00;2.30;;;14.50;51.10;;;;;;6272154;28;20028;-77
2024/03/04 12:14:18;;;;;;;4.50;2.78;;;14.60;51.00;;;;;;6290127;28;20028;-78
2024/03/04 12:17:19;;;;;;;5.18;2.80;;;14.70;50.70;;;;;;6304495;28;20081;-79
2024/03/04 12:20:24;;;;;;;5.97;2.20;;;15.00;50.90;;;;;;6297620;28;20043;-78
2024/03/04 12:23:29;;;;;;;5.90;2.65;;;15.70;50.00;;;;;;6274680;28;20043;-78
2024/03/04 12:26:30;;;;;;;4.80;2.05;;;16.10;48.80;;;;;;6308213;28;20026;-76
2024/03/04 12:29:31;;;;;;;7.05;2.55;;;16.30;48.40;;;;;;6304569;28;20430;-77
2024/03/04 12:32:32;;;;;;;3.13;2.50;;;16.90;47.80;;;;;;6306071;28;20017;-78
2024/03/04 12:35:34;;;;;;;4.43;2.45;;;17.80;46.40;;;;;;6303600;28;20468;-77
2024/03/04 12:38:36;;;;;;;4.75;2.45;;;18.70;44.80;;;;;;6304176;28;20032;-78
2024/03/04 12:41:38;;;;;;;3.90;2.08;;;19.10;43.00;;;;;;6316415;28;20104;-76
2024/03/04 12:44:39;;;;;;;4.38;2.58;;;18.50;42.70;;;;;;6276894;28;20441;-78
2024/03/04 12:47:42;;;;;;;3.13;1.80;;;17.90;43.60;;;;;;6295803;28;20024;-78
2024/03/04 12:50:45;;;;;;;7.78;2.20;;;17.30;44.40;;;;;;6308399;28;20102;-76
2024/03/04 12:53:46;;;;;;;5.53;2.20;;;16.70;45.40;;;;;;6298593;28;20109;-76
2024/03/04 12:56:47;;;;;;;6.78;2.10;;;16.20;46.00;;;;;;6296633;28;20061;-77
2024/03/04 12:59:50;;;;;;;4.20;2.30;;;15.70;46.60;;;;;;6294239;28;20085;-77
2024/03/04 13:02:51;;;;;;;5.30;2.83;;;15.30;47.50;;;;;;6311925;28;20031;-78
2024/03/04 13:05:52;;;;;;;6.53;2.03;;;15.10;48.00;;;;;;6313262;28;20502;-76
2024/03/04 13:08:54;;;;;;;5.60;2.75;;;15.00;48.40;;;;;;6307639;28;20069;-77
2024/03/04 13:11:56;;;;;;;6.13;2.53;;;14.90;48.60;;;;;;6295927;28;20063;-77
2024/03/04 13:14:57;;;;;;;3.75;2.25;;;14.80;48.80;;;;;;6304910;28;20020;-77
2024/03/04 13:17:58;;;;;;;4.35;2.28;;;14.60;49.00;;;;;;6277160;28;20045;-76
2024/03/04 13:21:02;;;;;;;6.70;2.35;;;14.60;49.20;;;;;;6296584;28;20111;-77
2024/03/04 13:24:03;;;;;;;4.20;2.50;;;14.70;49.20;;;;;;6285081;28;21609;-76
2024/03/04 13:27:08;;;;;;;3.42;2.33;;;14.70;49.00;;;;;;6276093;28;20035;-77
2024/03/04 13:30:10;;;;;;;4.32;2.47;;;14.70;49.10;;;;;;6303957;28;20033;-75
2024/03/04 13:33:11;;;;;;;5.13;1.80;;;14.70;49.00;;;;;;6299179;28;20100;-76
2024/03/04 13:36:12;;;;;;;4.97;2.53;;;14.80;49.00;;;;;;6305837;28;20024;-75
2024/03/04 13:39:13;;;;;;;5.05;2.58;;;14.90;49.10;;;;;;6298667;28;20470;-76
2024/03/04 13:42:14;;;;;;;3.65;2.40;;;14.90;48.90;;;;;;6302344;28;20016;-77
2024/03/04 13:45:16;;;;;;;3.78;2.20;;;15.00;48.80;;;;;;6311046;28;20111;-76
2024/03/04 13:48:16;;;;;;;3.45;1.70;;;15.00;48.80;;;;;;6301952;28;20512;-76
2024/03/04 13:51:17;;;;;;;5.07;2.40;;;15.00;48.80;;;;;;6305713;28;20021;-76
2024/03/04 13:54:20;;;;;;;6.80;2.30;;;15.10;48.70;;;;;;6300818;28;20024;-77
2024/03/04 13:57:22;;;;;;;4.20;2.30;;;15.30;48.50;;;;;;6309216;28;20024;-77
2024/03/04 14:00:23;;;;;;;6.60;2.70;;;15.50;48.10;;;;;;6306388;28;20467;-77
2024/03/04 14:03:23;;;;;;;5.70;2.33;;;15.70;47.70;;;;;;6294136;28;20036;-75
2024/03/04 14:06:25;;;;;;;12.95;3.00;;;15.90;47.50;;;;;;6295416;28;21348;-77
2024/03/04 14:09:29;;;;;;;5.07;2.53;;;15.90;47.30;;;;;;6299829;28;20130;-77
2024/03/04 14:12:30;;;;;;;3.00;2.42;;;16.00;47.40;;;;;;6307168;28;20028;-79
2024/03/04 14:15:31;;;;;;;4.72;2.60;;;16.00;47.10;;;;;;6288824;28;20029;-77
2024/03/04 14:18:32;;;;;;;6.05;2.80;;;15.60;47.10;;;;;;6286633;28;20105;-76
2024/03/04 14:21:33;;;;;;;4.15;2.65;;;15.60;47.40;;;;;;6292599;28;20020;-77
2024/03/04 14:24:34;;;;;;;5.75;2.65;;;15.60;47.70;;;;;;6288873;28;20032;-76
2024/03/04 14:27:35;;;;;;;12.65;3.13;;;15.50;47.70;;;;;;6310721;28;20053;-76
2024/03/04 14:30:37;;;;;;;6.40;2.70;;;15.40;48.10;;;;;;6312888;28;20008;-77
2024/03/04 14:33:37;;;;;;;8.98;3.45;;;15.40;48.10;;;;;;6293357;28;20047;-78
2024/03/04 14:36:38;;;;;;;6.15;3.17;;;15.40;47.90;;;;;;6279817;28;20024;-77
2024/03/04 14:39:40;;;;;;;7.85;3.08;;;15.50;48.00;;;;;;6309154;28;20071;-75
2024/03/04 14:42:43;;;;;;;4.53;2.42;;;15.40;48.00;;;;;;6296072;28;20123;-75
2024/03/04 14:45:45;;;;;;;7.65;3.50;;;15.40;48.00;;;;;;6295794;28;20054;-77
2024/03/04 14:48:48;;;;;;;6.85;3.60;;;15.50;48.00;;;;;;6303696;28;20150;-77
2024/03/04 14:51:51;;;;;;;5.82;2.97;;;15.50;47.90;;;;;;6303833;28;20024;-76
2024/03/04 14:54:52;;;;;;;6.10;2.88;;;15.50;47.90;;;;;;6296887;28;20440;-77
2024/03/04 14:57:53;;;;;;;6.20;3.05;;;15.40;48.00;;;;;;6296540;28;20024;-77
2024/03/04 15:00:55;;;;;;;6.43;3.35;;;15.20;48.30;;;;;;6291872;28;20032;-79
2024/03/04 15:03:56;;;;;;;10.23;3.83;;;15.00;48.80;;;;;;6294661;28;20116;-76
2024/03/04 15:06:58;;;;;;;10.05;3.88;;;14.90;49.40;;;;;;6294178;28;20043;-76
2024/03/04 15:09:59;;;;;;;7.47;3.05;;;14.70;49.90;;;;;;6307960;28;20348;-76
2024/03/04 15:13:00;;;;;;;5.95;3.35;;;14.60;50.20;;;;;;6308707;28;20483;-76
2024/03/04 15:16:00;;;;;;;7.53;3.78;;;14.40;50.50;;;;;;6314087;28;20027;-76
2024/03/04 15:19:03;;;;;;;8.45;4.25;;;14.20;50.80;;;;;;6310520;28;20207;-78
2024/03/04 15:22:04;;;;;;;5.18;3.17;;;14.10;51.10;;;;;;6299722;28;20035;-77
2024/03/04 15:25:07;;;;;;;6.07;3.13;;;14.10;51.30;;;;;;6298372;28;20028;-76
2024/03/04 15:28:11;;;;;;;4.72;2.95;;;14.00;51.50;;;;;;6312921;28;20111;-77
2024/03/04 15:31:12;;;;;;;5.75;2.80;;;14.00;51.60;;;;;;6309101;28;20206;-77
2024/03/04 15:34:16;;;;;;;12.35;3.40;;;14.00;51.80;;;;;;6295983;28;20027;-77
2024/03/04 15:37:17;;;;;;;11.73;3.22;;;14.00;51.90;;;;;;6313328;28;20064;-77
2024/03/04 15:40:18;;;;;;;5.47;2.65;;;14.00;52.00;;;;;;6294325;28;20035;-76
2024/03/04 15:43:19;;;;;;;10.40;2.92;;;14.00;52.10;;;;;;6304415;28;20459;-76
2024/03/04 15:46:23;;;;;;;5.53;3.05;;;13.90;52.10;;;;;;6285750;28;20035;-77
2024/03/04 15:49:24;;;;;;;5.90;3.17;;;13.90;52.40;;;;;;6270689;28;20024;-76
2024/03/04 15:52:26;;;;;;;5.72;3.15;;;13.80;52.60;;;;;;6308721;28;20037;-77
2024/03/04 15:55:28;;;;;;;3.40;2.47;;;13.80;52.60;;;;;;6310033;28;20008;-78
2024/03/04 15:58:29;;;;;;;7.55;3.10;;;13.80;52.70;;;;;;6314122;28;20024;-78